Time;durP1;ratioP1;P1;durP2;ratioP2;P2;SDS_P1;SDS_P2;PMS_P1;PMS_P2;Temp;Humidity;BMP_temperature;BMP_pressure;BME280_temperature;BME280_humidity;BME280_pressure;Samples;Min_cycle;Max_cycle;Signal;HPM_P1;HPM_P2
2021/08/26 00:00:00;;;;;;;;;;;;;;;23.82;61.79;100519.53;5005560;28;1339;-52
2021/08/26 00:07:56;;;;;;;;;;;;;;;23.79;61.40;100510.94;5016393;28;1756;-52
2021/08/26 00:10:24;;;;;;;;;;;;;;;23.79;61.13;100506.38;5016147;28;1679;-52
2021/08/26 00:12:51;;;;;;;;;;;;;;;23.86;60.75;100530.00;5015647;28;1983;-52
2021/08/26 00:15:18;;;;;;;;;;;;;;;23.77;61.04;100521.91;5016079;28;1544;-52
2021/08/26 00:17:47;;;;;;;;;;;;;;;23.69;61.18;100515.66;5009449;28;1786;-52
2021/08/26 00:20:13;;;;;;;;;;;;;;;23.66;61.40;100519.56;5012641;28;1512;-52
2021/08/26 00:22:40;;;;;;;;;;;;;;;23.66;61.33;100503.38;5013385;28;1763;-52
2021/08/26 00:25:07;;;;;;;;;;;;;;;23.70;61.37;100503.88;5015726;28;1726;-52
2021/08/26 00:27:34;;;;;;;;;;;;;;;23.70;60.76;100515.50;5015270;28;1720;-52
2021/08/26 00:30:00;;;;;;;;;;;;;;;23.68;61.04;100500.50;5009923;28;1607;-52
2021/08/26 00:32:27;;;;;;;;;;;;;;;23.76;60.76;100511.28;5015559;28;1910;-52
2021/08/26 00:34:55;;;;;;;;;;;;;;;23.81;60.53;100490.88;5011724;28;1761;-52
2021/08/26 00:37:21;;;;;;;;;;;;;;;23.89;60.75;100513.44;5015861;28;1951;-52
2021/08/26 00:39:48;;;;;;;;;;;;;;;23.86;60.90;100497.59;5013827;28;1681;-52
2021/08/26 00:42:15;;;;;;;;;;;;;;;23.79;61.32;100495.56;5013516;28;1820;-52
2021/08/26 00:44:41;;;;;;;;;;;;;;;23.86;60.96;100503.00;5014657;28;1792;-52
2021/08/26 00:47:09;;;;;;;;;;;;;;;23.77;61.06;100513.81;5017176;28;1019;-52
2021/08/26 00:49:35;;;;;;;;;;;;;;;23.73;61.07;100519.72;5015452;28;2119;-52
2021/08/26 00:52:04;;;;;;;;;;;;;;;23.64;61.34;100510.78;5006869;28;1906;-51
2021/08/26 00:54:30;;;;;;;;;;;;;;;23.68;61.78;100512.13;5015120;28;1508;-52
2021/08/26 00:56:57;;;;;;;;;;;;;;;23.79;60.99;100506.38;5006825;28;1745;-52
2021/08/26 00:59:26;;;;;;;;;;;;;;;23.81;60.92;100519.72;5014308;28;1528;-53
2021/08/26 01:01:56;;;;;;;;;;;;;;;23.68;61.13;100512.13;5016366;28;1507;-52
2021/08/26 01:04:27;;;;;;;;;;;;;;;23.68;61.43;100498.63;5014911;28;1635;-52
2021/08/26 01:06:57;;;;;;;;;;;;;;;23.69;61.36;100500.31;5015031;28;1602;-52
2021/08/26 01:09:27;;;;;;;;;;;;;;;23.59;61.43;100505.06;5014918;28;1456;-52
2021/08/26 01:11:54;;;;;;;;;;;;;;;23.67;61.42;100513.13;5009030;28;1981;-52
2021/08/26 01:14:21;;;;;;;;;;;;;;;23.57;61.56;100509.78;5014937;28;1907;-52
2021/08/26 01:16:47;;;;;;;;;;;;;;;23.57;61.90;100512.47;5014039;28;1696;-53
2021/08/26 01:19:14;;;;;;;;;;;;;;;23.47;61.79;100501.03;5013561;28;1713;-52
2021/08/26 01:21:40;;;;;;;;;;;;;;;23.49;61.80;100507.94;5015128;28;1963;-52
2021/08/26 01:24:09;;;;;;;;;;;;;;;23.52;62.22;100506.78;5013542;28;1568;-52
2021/08/26 01:26:38;;;;;;;;;;;;;;;23.54;62.29;100510.16;5006741;28;1634;-52
2021/08/26 01:29:06;;;;;;;;;;;;;;;23.55;62.09;100501.84;5015417;28;1561;-52
2021/08/26 01:31:33;;;;;;;;;;;;;;;23.60;62.15;100517.56;5014408;28;1954;-52
2021/08/26 01:34:01;;;;;;;;;;;;;;;23.59;62.15;100500.50;5011102;28;1981;-52
2021/08/26 01:36:29;;;;;;;;;;;;;;;23.69;61.89;100508.41;5012353;28;1545;-52
2021/08/26 01:39:00;;;;;;;;;;;;;;;23.63;61.71;100499.16;5012388;28;1972;-52
2021/08/26 01:41:37;;;;;;;;;;;;;;;23.69;61.16;100508.41;5008021;28;1520;-52
2021/08/26 01:44:03;;;;;;;;;;;;;;;23.49;62.38;100512.50;5013275;28;1124;-52
2021/08/26 01:46:30;;;;;;;;;;;;;;;23.33;62.31;100503.41;5012703;28;2555;-53
2021/08/26 01:48:56;;;;;;;;;;;;;;;23.32;62.43;100504.44;5012547;28;1711;-52
2021/08/26 01:51:23;;;;;;;;;;;;;;;23.32;62.07;100485.56;5013371;28;1650;-53
2021/08/26 01:53:50;;;;;;;;;;;;;;;23.45;62.33;100494.97;5008324;28;2009;-52
2021/08/26 01:56:16;;;;;;;;;;;;;;;23.53;61.81;100508.44;5011493;28;1748;-53
2021/08/26 01:58:44;;;;;;;;;;;;;;;23.52;61.87;100504.91;5012738;28;1497;-52
2021/08/26 02:01:13;;;;;;;;;;;;;;;23.36;62.00;100510.34;5108963;23;3784;-53
2021/08/26 02:03:40;;;;;;;;;;;;;;;23.25;62.30;100516.09;4992046;28;1717;-53
2021/08/26 02:06:33;;;;;;;;;;;;;;;23.25;62.86;100514.22;4992360;28;1182;-53
2021/08/26 02:09:00;;;;;;;;;;;;;;;23.40;61.98;100514.38;4992920;28;1572;-53
2021/08/26 02:11:28;;;;;;;;;;;;;;;23.43;62.09;100512.16;4992607;28;1357;-53
2021/08/26 02:14:00;;;;;;;;;;;;;;;23.48;62.04;100489.25;4994141;28;1984;-53
2021/08/26 02:16:26;;;;;;;;;;;;;;;23.36;62.31;100486.91;4999629;28;1584;-53
2021/08/26 02:18:53;;;;;;;;;;;;;;;23.37;61.96;100488.56;4993914;28;1990;-52
2021/08/26 02:21:27;;;;;;;;;;;;;;;23.38;62.23;100505.63;4995526;28;1861;-53
2021/08/26 02:23:58;;;;;;;;;;;;;;;23.22;62.01;100498.38;4974211;28;2062;-53
2021/08/26 02:26:29;;;;;;;;;;;;;;;23.25;62.18;100510.69;4993336;28;1147;-53
2021/08/26 02:29:02;;;;;;;;;;;;;;;23.33;62.05;100500.72;5009125;28;2126;-53
2021/08/26 02:31:29;;;;;;;;;;;;;;;23.25;61.91;100491.81;4994890;28;1972;-53
2021/08/26 02:33:55;;;;;;;;;;;;;;;23.19;61.96;100482.53;4993915;28;1977;-52
2021/08/26 02:36:22;;;;;;;;;;;;;;;23.13;61.99;100484.03;4992908;28;2148;-53
2021/08/26 02:39:00;;;;;;;;;;;;;;;23.23;61.65;100490.09;4994341;28;988;-53
2021/08/26 02:41:34;;;;;;;;;;;;;;;23.16;61.58;100472.94;4978279;28;1000;-53
2021/08/26 02:44:04;;;;;;;;;;;;;;;23.15;61.46;100489.28;4992387;28;1707;-53
2021/08/26 02:46:31;;;;;;;;;;;;;;;23.18;61.46;100467.38;4993918;28;1430;-52
2021/08/26 02:48:59;;;;;;;;;;;;;;;23.14;61.42;100482.19;4992292;28;1707;-53
2021/08/26 02:51:29;;;;;;;;;;;;;;;23.15;61.29;100484.72;4991713;28;1482;-53
2021/08/26 02:53:57;;;;;;;;;;;;;;;23.18;60.94;100462.81;4992649;28;1973;-52
2021/08/26 02:59:11;;;;;;;;;;;;;;;23.09;60.92;100485.41;4993079;28;2602;-52
2021/08/26 03:01:39;;;;;;;;;;;;;;;23.03;60.94;100491.47;4991696;28;1809;-53
2021/08/26 03:04:08;;;;;;;;;;;;;;;23.13;60.76;100485.91;4991386;28;1526;-52
2021/08/26 03:06:39;;;;;;;;;;;;;;;23.18;60.45;100488.94;4991676;28;1608;-53
2021/08/26 03:09:06;;;;;;;;;;;;;;;23.15;60.55;100490.09;4989014;28;1805;-52
2021/08/26 03:11:42;;;;;;;;;;;;;;;23.02;60.98;100500.59;4992800;28;1806;-53
2021/08/26 03:14:12;;;;;;;;;;;;;;;22.99;60.69;100499.00;4990694;28;1906;-53
2021/08/26 03:16:43;;;;;;;;;;;;;;;23.02;60.61;100496.03;5004719;28;1447;-52
2021/08/26 03:19:12;;;;;;;;;;;;;;;23.18;60.48;100494.34;5007424;28;1880;-53
2021/08/26 03:21:40;;;;;;;;;;;;;;;23.16;60.41;100489.13;4995242;28;1954;-51
2021/08/26 03:24:07;;;;;;;;;;;;;;;23.00;60.31;100498.03;4993128;28;1553;-53
2021/08/26 03:26:34;;;;;;;;;;;;;;;22.89;60.76;100500.22;4986959;28;1477;-53
2021/08/26 03:29:01;;;;;;;;;;;;;;;22.93;60.32;100498.84;4991438;28;1271;-52
2021/08/26 03:31:32;;;;;;;;;;;;;;;23.11;60.08;100504.13;4992847;28;1536;-52
2021/08/26 03:34:02;;;;;;;;;;;;;;;23.22;59.48;100501.09;5003727;28;1979;-52
2021/08/26 03:36:29;;;;;;;;;;;;;;;23.15;59.54;100498.19;4992846;28;1584;-52
2021/08/26 03:38:55;;;;;;;;;;;;;;;22.99;59.64;100506.28;4992591;28;1557;-52
2021/08/26 03:41:23;;;;;;;;;;;;;;;22.87;59.68;100511.16;4995791;28;2287;-52
2021/08/26 03:43:53;;;;;;;;;;;;;;;22.79;59.82;100511.16;5000891;28;1399;-52
2021/08/26 03:46:30;;;;;;;;;;;;;;;22.75;59.63;100505.25;4986147;28;1655;-52
2021/08/26 03:48:58;;;;;;;;;;;;;;;22.97;59.54;100514.53;4975340;28;2072;-52
2021/08/26 03:51:27;;;;;;;;;;;;;;;23.02;59.10;100508.69;4991515;28;1838;-53
2021/08/26 03:53:55;;;;;;;;;;;;;;;23.09;58.71;100516.94;4992672;28;1987;-52
2021/08/26 03:56:22;;;;;;;;;;;;;;;23.22;58.67;100519.97;5004291;28;1806;-53
2021/08/26 03:58:49;;;;;;;;;;;;;;;23.24;58.50;100509.84;4991481;28;2699;-53
2021/08/26 04:01:24;;;;;;;;;;;;;;;23.15;58.37;100500.91;4991015;28;1540;-53
2021/08/26 04:03:54;;;;;;;;;;;;;;;23.15;58.39;100506.28;4989347;28;1547;-53
2021/08/26 04:06:22;;;;;;;;;;;;;;;23.17;58.53;100523.16;4991770;28;1530;-53
2021/08/26 04:08:49;;;;;;;;;;;;;;;23.30;58.42;100522.66;4992452;28;2198;-53
2021/08/26 04:11:19;;;;;;;;;;;;;;;23.27;58.22;100533.78;4992091;28;1497;-52
2021/08/26 04:13:49;;;;;;;;;;;;;;;23.15;58.44;100538.66;4991908;28;1973;-53
2021/08/26 04:16:16;;;;;;;;;;;;;;;23.23;58.60;100525.16;4991853;28;1553;-54
2021/08/26 04:18:43;;;;;;;;;;;;;;;23.28;58.07;100523.81;4991650;28;1768;-53
2021/08/26 04:21:10;;;;;;;;;;;;;;;23.37;58.34;100522.81;5007873;28;1745;-53
2021/08/26 04:23:42;;;;;;;;;;;;;;;23.42;58.17;100518.59;4992662;28;1807;-53
2021/08/26 04:26:12;;;;;;;;;;;;;;;23.46;58.34;100518.22;4974672;28;1814;-53
2021/08/26 04:28:42;;;;;;;;;;;;;;;23.54;58.25;100520.94;4993233;28;1574;-53
2021/08/26 04:31:12;;;;;;;;;;;;;;;23.50;58.09;100519.59;4981703;28;1745;-53
2021/08/26 04:33:39;;;;;;;;;;;;;;;23.52;58.18;100533.78;4991359;28;1989;-53
2021/08/26 04:36:09;;;;;;;;;;;;;;;23.47;58.20;100520.75;4998550;28;1788;-53
2021/08/26 04:38:37;;;;;;;;;;;;;;;23.47;58.07;100536.13;4991968;28;2440;-53
2021/08/26 04:41:14;;;;;;;;;;;;;;;23.31;58.94;100518.94;4992947;28;1821;-53
2021/08/26 04:43:44;;;;;;;;;;;;;;;23.30;58.60;100525.34;4993624;28;1818;-53
2021/08/26 04:46:14;;;;;;;;;;;;;;;23.15;59.85;100511.69;4992615;28;2016;-53
2021/08/26 04:48:44;;;;;;;;;;;;;;;23.11;60.88;100493.31;4994100;28;1863;-53
2021/08/26 04:51:14;;;;;;;;;;;;;;;23.08;60.16;100499.91;4996356;28;1646;-53
2021/08/26 04:53:42;;;;;;;;;;;;;;;23.17;59.74;100498.03;4988071;28;1903;-53
2021/08/26 04:56:10;;;;;;;;;;;;;;;23.10;59.59;100507.81;4991588;28;1666;-53
2021/08/26 04:58:42;;;;;;;;;;;;;;;23.08;59.51;100488.25;4993518;28;1523;-53
2021/08/26 05:01:08;;;;;;;;;;;;;;;23.11;59.08;100498.72;4964195;28;1858;-53
2021/08/26 05:03:35;;;;;;;;;;;;;;;23.27;58.66;100497.88;4994107;28;1550;-53
2021/08/26 05:06:03;;;;;;;;;;;;;;;23.23;59.07;100502.75;4998887;28;1438;-53
2021/08/26 05:08:30;;;;;;;;;;;;;;;23.12;59.29;100513.88;4997811;28;1610;-53
2021/08/26 05:11:07;;;;;;;;;;;;;;;23.13;59.02;100510.19;4993086;28;1557;-52
2021/08/26 05:13:37;;;;;;;;;;;;;;;22.93;59.09;100507.78;4992081;28;1910;-46
2021/08/26 05:16:03;;;;;;;;;;;;;;;22.73;59.41;100511.81;4996626;28;1541;-51
2021/08/26 05:18:30;;;;;;;;;;;;;;;22.66;59.25;100517.03;4993462;28;1366;-51
2021/08/26 05:20:59;;;;;;;;;;;;;;;22.76;59.44;100509.63;4992506;28;2023;-51
2021/08/26 05:23:25;;;;;;;;;;;;;;;22.61;60.13;100520.22;4994097;28;1892;-51
2021/08/26 05:25:52;;;;;;;;;;;;;;;22.80;59.47;100512.81;4995212;28;1927;-53
2021/08/26 05:28:20;;;;;;;;;;;;;;;23.15;58.66;100510.84;4996673;28;1831;-52
2021/08/26 05:30:53;;;;;;;;;;;;;;;23.36;58.31;100510.34;4994671;28;1513;-51
2021/08/26 05:33:21;;;;;;;;;;;;;;;23.51;57.72;100502.38;4996846;28;1910;-51
2021/08/26 05:35:48;;;;;;;;;;;;;;;23.56;57.23;100516.22;4994715;28;1630;-51
2021/08/26 05:38:16;;;;;;;;;;;;;;;23.60;58.50;100504.06;5001527;28;1658;-52
2021/08/26 05:40:43;;;;;;;;;;;;;;;23.64;57.23;100521.59;4994697;28;1842;-51
2021/08/26 05:43:11;;;;;;;;;;;;;;;23.71;58.49;100516.34;4991166;28;1541;-52
2021/08/26 05:45:37;;;;;;;;;;;;;;;23.65;57.40;100515.16;4992424;28;1771;-51
2021/08/26 05:48:10;;;;;;;;;;;;;;;23.70;57.58;100518.19;4996248;28;1545;-52
2021/08/26 05:53:21;;;;;;;;;;;;;;;23.88;56.91;100520.72;5001335;28;2133;-51
2021/08/26 05:55:50;;;;;;;;;;;;;;;23.92;57.61;100505.84;4992488;28;1715;-51
2021/08/26 05:58:17;;;;;;;;;;;;;;;23.99;58.61;100501.44;4992692;28;1672;-52
2021/08/26 06:00:44;;;;;;;;;;;;;;;24.07;58.09;100505.94;4992753;28;1919;-52
2021/08/26 06:03:14;;;;;;;;;;;;;;;24.11;58.96;100501.88;4994372;28;1489;-51
2021/08/26 06:05:40;;;;;;;;;;;;;;;24.16;59.18;100507.59;4990481;28;2397;-51
2021/08/26 06:08:08;;;;;;;;;;;;;;;24.19;59.02;100495.59;4994070;28;1918;-52
2021/08/26 06:10:37;;;;;;;;;;;;;;;24.25;59.11;100497.59;4993614;28;1826;-53
2021/08/26 06:13:06;;;;;;;;;;;;;;;24.21;59.21;100497.13;4993965;28;1984;-51
2021/08/26 06:15:33;;;;;;;;;;;;;;;24.28;59.07;100489.13;4993953;28;1903;-51
2021/08/26 06:18:02;;;;;;;;;;;;;;;24.26;58.85;100503.84;5010321;28;1862;-51
2021/08/26 06:20:36;;;;;;;;;;;;;;;24.26;58.70;100487.63;4997154;28;1972;-52
2021/08/26 06:23:06;;;;;;;;;;;;;;;24.28;59.24;100485.59;4993715;28;1872;-51
2021/08/26 06:25:43;;;;;;;;;;;;;;;24.27;58.74;100468.53;4994264;28;1702;-51
2021/08/26 06:28:10;;;;;;;;;;;;;;;24.27;59.65;100479.34;4993599;28;1600;-51
2021/08/26 06:30:45;;;;;;;;;;;;;;;24.32;58.97;100466.13;4993445;28;1824;-52
2021/08/26 06:33:18;;;;;;;;;;;;;;;24.37;59.43;100482.69;4994258;28;1061;-52
2021/08/26 06:35:47;;;;;;;;;;;;;;;24.37;59.21;100479.97;4993109;28;1902;-51
2021/08/26 06:38:13;;;;;;;;;;;;;;;24.48;59.45;100486.00;4993801;28;1765;-52
2021/08/26 06:40:42;;;;;;;;;;;;;;;24.45;59.08;100454.72;4993567;28;1575;-52
2021/08/26 06:43:10;;;;;;;;;;;;;;;24.53;58.97;100484.47;4993397;28;1516;-51
2021/08/26 06:45:37;;;;;;;;;;;;;;;24.47;58.44;100493.25;4993484;28;1910;-52
2021/08/26 06:48:05;;;;;;;;;;;;;;;24.54;58.52;100502.34;4994631;28;1631;-52
2021/08/26 06:50:32;;;;;;;;;;;;;;;24.55;58.76;100503.19;4992719;28;1695;-52
2021/08/26 06:53:07;;;;;;;;;;;;;;;24.50;59.48;100489.34;4992708;28;1748;-52
2021/08/26 06:55:33;;;;;;;;;;;;;;;24.48;58.58;100492.22;4992846;28;1973;-52
2021/08/26 06:58:03;;;;;;;;;;;;;;;24.50;58.50;100503.72;4993096;28;1766;-52
2021/08/26 07:00:30;;;;;;;;;;;;;;;24.52;59.23;100498.16;4992807;28;1676;-52
2021/08/26 07:02:59;;;;;;;;;;;;;;;24.53;59.39;100508.81;4992926;28;1295;-52
2021/08/26 07:05:27;;;;;;;;;;;;;;;24.52;59.11;100493.59;4992764;28;1794;-52
2021/08/26 07:07:57;;;;;;;;;;;;;;;24.50;58.52;100495.63;4992352;28;1508;-52
2021/08/26 07:10:30;;;;;;;;;;;;;;;24.52;58.66;100511.66;4992405;28;1581;-52
2021/08/26 07:12:57;;;;;;;;;;;;;;;24.53;58.52;100511.50;4993147;28;1860;-51
2021/08/26 07:15:26;;;;;;;;;;;;;;;24.56;58.75;100518.41;4992938;28;1907;-52
2021/08/26 07:17:54;;;;;;;;;;;;;;;24.59;59.39;100510.78;5008637;28;1545;-52
2021/08/26 07:20:21;;;;;;;;;;;;;;;24.57;59.23;100502.00;4996790;28;1872;-52
2021/08/26 07:22:49;;;;;;;;;;;;;;;24.57;58.88;100501.16;4992778;28;1950;-52
2021/08/26 07:25:19;;;;;;;;;;;;;;;24.60;58.51;100523.25;4991913;28;1543;-52
2021/08/26 07:27:51;;;;;;;;;;;;;;;24.59;58.44;100516.19;4993172;28;1866;-52
2021/08/26 07:30:18;;;;;;;;;;;;;;;24.60;58.60;100517.84;4992512;28;1634;-52
2021/08/26 07:32:44;;;;;;;;;;;;;;;24.64;59.29;100520.22;4992980;28;1092;-54
2021/08/26 07:35:12;;;;;;;;;;;;;;;24.63;58.78;100510.41;4992683;28;1906;-52
2021/08/26 07:37:39;;;;;;;;;;;;;;;24.64;58.86;100518.34;4992810;28;1850;-52
2021/08/26 07:40:07;;;;;;;;;;;;;;;24.71;58.70;100510.34;4993442;28;1002;-52
2021/08/26 07:42:43;;;;;;;;;;;;;;;24.69;58.53;100493.47;4992720;28;2156;-52
2021/08/26 07:45:16;;;;;;;;;;;;;;;24.72;58.26;100506.63;4992492;28;1746;-52
2021/08/26 07:47:43;;;;;;;;;;;;;;;24.74;58.62;100496.47;4992996;28;1682;-52
2021/08/26 07:50:11;;;;;;;;;;;;;;;24.74;58.37;100501.91;4991949;28;1495;-52
2021/08/26 07:52:39;;;;;;;;;;;;;;;24.72;58.21;100493.13;4992134;28;2051;-52
2021/08/26 07:55:07;;;;;;;;;;;;;;;24.72;58.32;100487.72;4991886;28;1906;-52
2021/08/26 07:57:35;;;;;;;;;;;;;;;24.71;58.77;100476.06;4992251;28;1646;-51
2021/08/26 08:00:01;;;;;;;;;;;;;;;24.77;59.13;100485.28;4991832;28;1684;-51
2021/08/26 08:02:33;;;;;;;;;;;;;;;24.74;58.86;100486.50;4992716;28;1308;-52
2021/08/26 08:05:01;;;;;;;;;;;;;;;24.80;59.19;100493.88;4991903;28;1512;-52
2021/08/26 08:07:27;;;;;;;;;;;;;;;24.83;58.30;100502.66;4992197;28;1691;-51
2021/08/26 08:10:05;;;;;;;;;;;;;;;24.83;58.89;100494.56;4992073;28;1839;-52
2021/08/26 08:15:13;;;;;;;;;;;;;;;24.80;59.09;100493.06;4985410;28;2534;-52
2021/08/26 08:17:52;;;;;;;;;;;;;;;24.84;59.27;100494.38;5007715;28;1918;-52
2021/08/26 08:20:22;;;;;;;;;;;;;;;24.79;58.69;100472.47;4997655;28;1526;-52
2021/08/26 08:22:50;;;;;;;;;;;;;;;24.84;58.47;100474.63;4993370;28;1900;-52
2021/08/26 08:25:20;;;;;;;;;;;;;;;24.84;58.52;100470.03;4995898;28;1809;-52
2021/08/26 08:27:50;;;;;;;;;;;;;;;24.86;58.44;100475.28;4995725;28;1659;-52
2021/08/26 08:30:17;;;;;;;;;;;;;;;24.83;58.50;100462.97;4992519;28;1698;-52
2021/08/26 08:32:46;;;;;;;;;;;;;;;24.90;58.50;100469.31;4988266;28;1075;-52
2021/08/26 08:35:14;;;;;;;;;;;;;;;24.91;58.86;100460.19;4995748;28;1973;-52
2021/08/26 08:37:41;;;;;;;;;;;;;;;24.89;58.72;100461.38;4996042;28;2034;-52
2021/08/26 08:40:09;;;;;;;;;;;;;;;24.89;58.20;100440.59;4996281;28;1795;-52
2021/08/26 08:42:35;;;;;;;;;;;;;;;24.90;58.91;100439.56;4995676;28;1739;-52
2021/08/26 08:45:05;;;;;;;;;;;;;;;24.91;58.35;100443.94;4995583;28;1789;-51
2021/08/26 08:47:36;;;;;;;;;;;;;;;24.91;58.70;100443.94;5010233;28;1680;-52
2021/08/26 08:50:16;;;;;;;;;;;;;;;24.93;58.74;100443.75;5003204;28;1580;-51
2021/08/26 08:52:43;;;;;;;;;;;;;;;24.92;58.87;100445.63;4995849;28;1845;-52
2021/08/26 08:55:11;;;;;;;;;;;;;;;24.92;59.32;100437.50;5000509;28;1906;-51
2021/08/26 08:57:45;;;;;;;;;;;;;;;24.94;58.82;100448.16;5006645;28;1925;-52
2021/08/26 09:00:14;;;;;;;;;;;;;;;24.89;58.66;100446.00;4983673;28;1552;-51
2021/08/26 09:02:45;;;;;;;;;;;;;;;24.90;58.72;100449.53;4995598;28;1321;-52
2021/08/26 09:05:15;;;;;;;;;;;;;;;24.93;59.20;100446.44;4995736;28;1707;-52
2021/08/26 09:07:44;;;;;;;;;;;;;;;24.92;58.53;100439.38;4995027;28;1572;-52
2021/08/26 09:10:12;;;;;;;;;;;;;;;24.94;58.94;100431.91;4994805;28;1718;-52
2021/08/26 09:12:46;;;;;;;;;;;;;;;24.90;59.22;100436.00;4995591;28;1869;-52
2021/08/26 09:15:30;;;;;;;;;;;;;;;24.91;58.56;100425.03;4994966;28;1969;-51
2021/08/26 09:18:12;;;;;;;;;;;;;;;24.94;58.93;100442.75;4976445;28;1039;-51
2021/08/26 09:20:51;;;;;;;;;;;;;;;24.93;58.73;100425.69;4991957;28;1778;-52
2021/08/26 09:23:20;;;;;;;;;;;;;;;24.94;59.44;100421.94;4995238;28;1560;-52
2021/08/26 09:25:48;;;;;;;;;;;;;;;24.90;59.45;100408.97;5003577;28;1838;-52
2021/08/26 09:28:43;;;;;;;;;;;;;;;24.91;58.82;100411.50;4995098;28;1639;-52
2021/08/26 09:31:17;;;;;;;;;;;;;;;24.97;59.03;100437.81;4994087;28;1693;-52
2021/08/26 09:33:51;;;;;;;;;;;;;;;24.97;59.32;100413.47;4994662;28;1549;-52
2021/08/26 09:36:24;;;;;;;;;;;;;;;24.96;59.05;100432.56;4995169;28;1902;-52
2021/08/26 09:38:53;;;;;;;;;;;;;;;24.91;58.73;100424.16;4995340;28;995;-52
2021/08/26 09:41:37;;;;;;;;;;;;;;;24.95;59.30;100449.84;4995505;28;2241;-52
2021/08/26 09:44:15;;;;;;;;;;;;;;;24.93;58.78;100425.69;4994288;28;1459;-51
2021/08/26 09:46:56;;;;;;;;;;;;;;;24.93;58.72;100436.50;4995268;28;1166;-52
2021/08/26 09:49:43;;;;;;;;;;;;;;;24.91;58.67;100429.56;4994983;28;1787;-52
2021/08/26 09:52:15;;;;;;;;;;;;;;;24.93;58.62;100441.91;4985809;28;1493;-52
2021/08/26 09:55:04;;;;;;;;;;;;;;;24.93;58.93;100449.16;4993247;28;1910;-52
2021/08/26 09:57:33;;;;;;;;;;;;;;;24.94;59.17;100454.38;4993479;28;1984;-52
2021/08/26 10:00:00;;;;;;;;;;;;;;;24.93;59.14;100432.94;4994623;28;1879;-52
2021/08/26 10:02:35;;;;;;;;;;;;;;;24.88;58.92;100416.44;4994738;28;1455;-52
2021/08/26 10:05:08;;;;;;;;;;;;;;;24.88;58.71;100428.06;4992920;28;1755;-52
2021/08/26 10:07:45;;;;;;;;;;;;;;;24.90;59.16;100430.59;4993802;28;1561;-52
2021/08/26 10:10:13;;;;;;;;;;;;;;;24.94;58.91;100426.50;4993587;28;1835;-52
2021/08/26 10:12:40;;;;;;;;;;;;;;;24.90;58.79;100420.63;5001566;28;1485;-52
2021/08/26 10:15:09;;;;;;;;;;;;;;;24.91;59.14;100425.03;5001539;28;1906;-52
2021/08/26 10:17:43;;;;;;;;;;;;;;;24.90;59.19;100425.19;4994994;28;1073;-52
2021/08/26 10:20:11;;;;;;;;;;;;;;;24.92;59.04;100420.44;4993835;28;1757;-52
2021/08/26 10:22:43;;;;;;;;;;;;;;;24.94;59.51;100421.94;4993832;28;1934;-52
2021/08/26 10:25:10;;;;;;;;;;;;;;;24.94;59.26;100443.56;4996572;28;1497;-52
2021/08/26 10:27:38;;;;;;;;;;;;;;;24.93;59.46;100436.50;5000043;28;1862;-52
2021/08/26 10:30:06;;;;;;;;;;;;;;;24.93;58.86;100449.16;4980747;28;1679;-52
2021/08/26 10:32:36;;;;;;;;;;;;;;;24.93;58.93;100454.56;4994267;28;1003;-52
2021/08/26 10:35:08;;;;;;;;;;;;;;;24.94;59.21;100461.69;4993174;28;1977;-51
2021/08/26 10:37:53;;;;;;;;;;;;;;;24.94;58.85;100448.97;4998186;28;1832;-52
2021/08/26 10:40:33;;;;;;;;;;;;;;;24.93;58.67;100431.09;5001387;28;1802;-50
2021/08/26 10:43:08;;;;;;;;;;;;;;;24.79;54.25;100440.00;4999454;28;1601;-51
2021/08/26 10:45:49;;;;;;;;;;;;;;;24.60;52.38;100423.22;4999987;28;1551;-51
2021/08/26 10:48:22;;;;;;;;;;;;;;;24.55;51.23;100441.88;4993856;28;955;-50
2021/08/26 10:51:04;;;;;;;;;;;;;;;24.53;51.61;100445.75;4998934;28;1994;-51
2021/08/26 10:53:37;;;;;;;;;;;;;;;24.45;51.67;100446.63;4992453;28;1571;-51
2021/08/26 10:56:21;;;;;;;;;;;;;;;24.48;50.89;100453.56;4992729;28;1910;-50
2021/08/26 10:58:48;;;;;;;;;;;;;;;24.48;50.93;100430.06;4992938;28;1693;-52
2021/08/26 11:01:30;;;;;;;;;;;;;;;24.46;50.91;100451.03;4992714;28;1505;-51
2021/08/26 11:04:02;;;;;;;;;;;;;;;24.39;50.79;100448.22;4991961;28;2337;-51
2021/08/26 11:06:36;;;;;;;;;;;;;;;24.46;50.96;100442.91;4989694;28;1961;-51
2021/08/26 11:09:19;;;;;;;;;;;;;;;24.42;50.46;100442.44;4987617;28;1764;-52
2021/08/26 11:12:04;;;;;;;;;;;;;;;24.45;50.50;100433.09;4981450;28;1598;-52
2021/08/26 11:14:53;;;;;;;;;;;;;;;24.47;51.08;100425.69;4974558;28;2051;-50
2021/08/26 11:17:31;;;;;;;;;;;;;;;24.39;51.04;100437.41;4990962;28;1079;-50
2021/08/26 11:20:06;;;;;;;;;;;;;;;24.35;50.72;100419.00;4992616;28;1821;-50
2021/08/26 11:22:54;;;;;;;;;;;;;;;24.28;51.05;100426.97;4988789;28;2038;-50
2021/08/26 11:25:27;;;;;;;;;;;;;;;24.29;50.99;100438.63;4993703;28;1557;-50
2021/08/26 11:28:26;;;;;;;;;;;;;;;24.27;51.07;100441.50;4992865;28;1697;-50
2021/08/26 11:31:16;;;;;;;;;;;;;;;24.34;50.80;100444.34;4990728;28;1558;-49
2021/08/26 11:36:24;;;;;;;;;;;;;;;24.25;50.63;100431.91;4992315;28;2201;-50
2021/08/26 11:38:55;;;;;;;;;;;;;;;24.34;51.13;100449.75;4993469;28;1785;-50
2021/08/26 11:41:22;;;;;;;;;;;;;;;24.39;50.60;100450.03;4992642;28;1120;-50
2021/08/26 11:43:50;;;;;;;;;;;;;;;24.30;50.05;100430.34;4997278;28;1980;-50
2021/08/26 11:46:22;;;;;;;;;;;;;;;24.28;50.06;100437.78;4992893;28;2002;-49
2021/08/26 11:48:52;;;;;;;;;;;;;;;24.34;49.97;100456.00;4995200;28;1686;-49
2021/08/26 11:54:13;;;;;;;;;;;;;;;24.34;50.81;100464.09;4992185;28;1762;-49
2021/08/26 11:57:06;;;;;;;;;;;;;;;24.29;50.07;100444.03;4990682;28;1883;-50
2021/08/26 12:02:23;;;;;;;;;;;;;;;24.30;49.81;100451.97;4994130;28;1606;-49
2021/08/26 12:04:52;;;;;;;;;;;;;;;24.30;49.76;100451.13;4998357;28;1567;-49
2021/08/26 12:10:11;;;;;;;;;;;;;;;24.20;50.26;100406.25;4998383;28;1809;-49
2021/08/26 12:12:38;;;;;;;;;;;;;;;24.16;50.31;100391.44;4998516;28;1501;-49
2021/08/26 12:15:16;;;;;;;;;;;;;;;24.24;50.24;100427.53;4998427;28;1469;-49
2021/08/26 12:17:49;;;;;;;;;;;;;;;24.26;50.63;100444.41;4995042;28;1907;-49
2021/08/26 12:20:18;;;;;;;;;;;;;;;24.35;50.57;100425.25;4999708;28;1772;-49
2021/08/26 12:22:49;;;;;;;;;;;;;;;24.28;49.69;100413.47;4998635;28;1537;-49
2021/08/26 12:25:24;;;;;;;;;;;;;;;24.34;49.58;100403.81;4998895;28;1553;-49
2021/08/26 12:27:58;;;;;;;;;;;;;;;24.47;50.45;100403.19;4998495;28;1675;-49
2021/08/26 12:30:34;;;;;;;;;;;;;;;24.49;50.70;100368.72;4999401;28;1634;-49
2021/08/26 12:33:13;;;;;;;;;;;;;;;24.57;50.25;100372.25;4998729;28;1724;-49
2021/08/26 12:35:44;;;;;;;;;;;;;;;24.60;49.84;100388.09;4999250;28;1911;-49
2021/08/26 12:38:11;;;;;;;;;;;;;;;24.60;49.58;100382.69;4996561;28;1841;-49
2021/08/26 12:40:48;;;;;;;;;;;;;;;24.59;49.22;100359.38;5002860;28;2061;-49
2021/08/26 12:43:18;;;;;;;;;;;;;;;24.63;48.80;100370.69;5006765;28;1811;-49
2021/08/26 12:45:45;;;;;;;;;;;;;;;24.67;47.82;100376.53;4999603;28;1513;-49
2021/08/26 12:48:22;;;;;;;;;;;;;;;24.70;48.21;100359.97;5004582;28;1776;-49
2021/08/26 12:51:09;;;;;;;;;;;;;;;24.80;48.59;100360.53;5002369;28;1713;-49
2021/08/26 12:53:36;;;;;;;;;;;;;;;24.70;47.92;100359.97;4999398;28;1497;-49
2021/08/26 12:56:04;;;;;;;;;;;;;;;24.71;48.84;100348.13;4999871;28;1902;-49
2021/08/26 12:58:32;;;;;;;;;;;;;;;24.72;48.00;100331.72;4991246;28;1619;-49
2021/08/26 13:00:58;;;;;;;;;;;;;;;24.81;48.57;100352.25;4998775;28;1697;-49
2021/08/26 13:03:41;;;;;;;;;;;;;;;24.76;47.57;100334.91;5011870;28;2003;-49
2021/08/26 13:06:11;;;;;;;;;;;;;;;24.77;47.45;100339.25;4998618;28;3078;-49
2021/08/26 13:08:43;;;;;;;;;;;;;;;24.78;47.25;100336.38;4989489;28;1821;-49
2021/08/26 13:11:11;;;;;;;;;;;;;;;24.80;47.03;100317.28;4996819;28;1864;-49
2021/08/26 13:13:39;;;;;;;;;;;;;;;24.78;47.19;100325.56;5006968;28;1881;-49
2021/08/26 13:16:06;;;;;;;;;;;;;;;24.83;47.72;100310.66;4995910;28;2001;-50
2021/08/26 13:18:33;;;;;;;;;;;;;;;24.84;46.94;100310.47;4996610;28;955;-49
2021/08/26 13:21:02;;;;;;;;;;;;;;;24.81;46.31;100300.88;4979282;28;2474;-49
2021/08/26 13:23:34;;;;;;;;;;;;;;;24.88;46.38;100298.25;4995905;28;1611;-49
2021/08/26 13:26:04;;;;;;;;;;;;;;;24.88;47.08;100305.53;5004786;28;1914;-49
2021/08/26 13:28:34;;;;;;;;;;;;;;;24.90;46.39;100307.03;4996423;28;1611;-49